Airfield :
LOGIN :

Register | Disclaimer

   EN    FR    IT 

 










Legend :    VFR   Marginal VFR   IFR   Intensive IFR   Very Intensive IFR
Visi :
Ceiling :
>= 8 km
>= 3000ft
5 to 8 km
1000 to 3000 ft
1500m to 5 km
500 to 1000 ft
800 to 1500m
200 to 500 ft
< 800m
< 200 ft
Symbols :   Thunderstorms  Fog  Heavy snow  Heavy precipitations  Wind > 20 kt
SIGMETs :     Misc.  Thunderstorms  Icing  Turbulence  Mountain Waves  Volcanic Ashes







- Airport Elevation : 407 ft


EGDM - MoD Boscombe Down Amesbury

CURRENT METAR :
  • 141350Z 27012KT 9999 FEW014CB 03/02 Q0990 BLU NOSIG

EXPIRED METARs :
  • 141250Z 26014KT 9999 FEW014 BKN022 04/03 Q0991 WHT TEMPO 7000 SHRA WHT
  • 141240Z 25016KT 9999 FEW014CB SCT020 BKN035 04/02 Q0991 WHT TEMPO 7000 SHRA WHT
  • 141226Z 26013KT 9999 -SHRA BKN014CB 04/02 Q0991 GRN TEMPO 7000 SHRA GRN
  • 141150Z 25012KT 9999 FEW016CB SCT180 05/02 Q0991 BLU TEMPO 7000 SHRA SCT016CB WHT

TAF TAF EGDM
Valid from the 14 at 12:00 until the 14 at 19:00 UTC


141041Z 1412/1419 24012KT 9999 SCT035
PROB40
TEMPO 1412/1415 24015G25KT 6000 SHRA SCT012CB
PROB30
TEMPO 1415/1419 24015G25KT 7000 SHRA SCT014
No reported NOTAMs for that airfield.
2 SIGMETs reported for the London FIR (EGTT) :
 
Severe turbulence
EGTT SIGMET 04 VALID 141500/141900 EGRR
EGTT LONDON FIR SEV TURB FCST SW OF LINE N5000 W00119 - N5219 W00533 SFC/FL060 STNR WKN=
Severe turbulence
EGTT SIGMET 03 VALID 141100/141500 EGRR
EGTT LONDON FIR SEV TURB FCST SW OF LINE N5000 W00019 - N5153 W00620 SFC/FL060 STNR NC=



MET'MAP, your aeronautical weather chart ! - Copyright ORBIFLY December 2007 - Disclaimer

ORBIFLY MET'MAP TEAM :

Programming & Development : Alexandra Zaïnal
Concept & Development : Baudouin d'Aumeries
Co-Development & Prog : Marc-Olivier Méhu
Technical & hardware support : Manuel Goepfert

Contact : metmap@orbifly.com




SOURCES & CREDITS :

   NOAA